Time;durP1;ratioP1;P1;durP2;ratioP2;P2;SDS_P1;SDS_P2;PMS_P1;PMS_P2;Temp;Humidity;BMP_temperature;BMP_pressure;BME280_temperature;BME280_humidity;BME280_pressure;Samples;Min_cycle;Max_cycle;Signal;HPM_P1;HPM_P2
2023/01/30 00:01:05;;;;;;;;;;;2.40;99.90;;;;;;6214594;23;19903;-77
2023/01/30 00:03:30;;;;;;;;;;;2.40;99.90;;;;;;6212608;23;19912;-77
2023/01/30 00:05:56;;;;;;;;;;;2.40;99.90;;;;;;6214422;23;19926;-75
2023/01/30 00:08:21;;;;;;;;;;;2.40;99.90;;;;;;6214522;23;19900;-75
2023/01/30 00:10:47;;;;;;;;;;;2.40;99.90;;;;;;6212475;23;20316;-75
2023/01/30 00:13:13;;;;;;;;;;;2.50;99.90;;;;;;6212853;23;20308;-75
2023/01/30 00:15:39;;;;;;;;;;;2.40;99.90;;;;;;6213491;23;19911;-77
2023/01/30 00:18:04;;;;;;;;;;;2.40;99.90;;;;;;6214181;23;19900;-77
2023/01/30 00:20:30;;;;;;;;;;;2.40;99.90;;;;;;6213706;23;19950;-77
2023/01/30 00:22:57;;;;;;;;;;;2.40;99.90;;;;;;6214005;23;19903;-77
2023/01/30 00:25:23;;;;;;;;;;;2.40;99.90;;;;;;6213918;23;19954;-78
2023/01/30 00:27:48;;;;;;;;;;;2.40;99.90;;;;;;6214307;23;19903;-77
2023/01/30 00:30:14;;;;;;;;;;;2.40;99.90;;;;;;6213935;23;19907;-77
2023/01/30 00:32:39;;;;;;;;;;;2.30;99.90;;;;;;6214167;23;19956;-77
2023/01/30 00:35:06;;;;;;;;;;;2.30;99.90;;;;;;6214223;23;20008;-77
2023/01/30 00:37:31;;;;;;;;;;;2.40;99.90;;;;;;6212783;23;19900;-77
2023/01/30 00:39:57;;;;;;;;;;;2.40;99.90;;;;;;6214239;23;19906;-77
2023/01/30 00:47:53;;;;;;;;;;;2.30;99.90;;;;;;6214338;23;19910;-77
2023/01/30 00:50:18;;;;;;;;;;;2.30;99.90;;;;;;6212462;23;19960;-78
2023/01/30 00:52:44;;;;;;;;;;;2.20;99.90;;;;;;6214160;23;19904;-77
2023/01/30 00:55:09;;;;;;;;;;;2.20;99.90;;;;;;6214244;23;19900;-77
2023/01/30 00:57:35;;;;;;;;;;;2.20;99.90;;;;;;6212693;23;20316;-77
2023/01/30 01:00:04;;;;;;;;;;;2.10;99.90;;;;;;6214263;23;19991;-77
2023/01/30 01:02:29;;;;;;;;;;;2.10;99.90;;;;;;6212280;23;20389;-77
2023/01/30 01:04:55;;;;;;;;;;;2.10;99.90;;;;;;6212301;23;19919;-77
2023/01/30 01:07:20;;;;;;;;;;;2.10;99.90;;;;;;6214027;23;19900;-75
2023/01/30 01:09:46;;;;;;;;;;;2.20;99.90;;;;;;6213972;23;19903;-75
2023/01/30 01:12:11;;;;;;;;;;;2.10;99.90;;;;;;6214099;23;19935;-74
2023/01/30 01:14:37;;;;;;;;;;;2.10;99.90;;;;;;6214078;23;19970;-75
2023/01/30 01:17:02;;;;;;;;;;;2.10;99.90;;;;;;6212136;23;20291;-75
2023/01/30 01:19:28;;;;;;;;;;;2.10;99.90;;;;;;6214038;23;19900;-75
2023/01/30 01:21:53;;;;;;;;;;;2.10;99.90;;;;;;6213832;23;19899;-74
2023/01/30 01:24:19;;;;;;;;;;;2.10;99.90;;;;;;6214268;23;19923;-75
2023/01/30 01:26:45;;;;;;;;;;;2.10;99.90;;;;;;6212334;23;20247;-77
2023/01/30 01:29:11;;;;;;;;;;;2.10;99.90;;;;;;6212304;23;19900;-77
2023/01/30 01:31:37;;;;;;;;;;;2.10;99.90;;;;;;6211812;23;20213;-77
2023/01/30 01:34:03;;;;;;;;;;;2.10;99.90;;;;;;6214901;23;19911;-77
2023/01/30 01:36:28;;;;;;;;;;;2.10;99.90;;;;;;6215581;23;20320;-78
2023/01/30 01:38:54;;;;;;;;;;;2.10;99.90;;;;;;6215764;23;19900;-77
2023/01/30 01:41:19;;;;;;;;;;;2.10;99.90;;;;;;6215805;23;20304;-77
2023/01/30 01:44:01;;;;;;;;;;;2.20;99.90;;;;;;6215433;23;19915;-75
2023/01/30 01:46:46;;;;;;;;;;;2.10;99.90;;;;;;6215627;23;19904;-77
2023/01/30 01:49:23;;;;;;;;;;;2.10;99.90;;;;;;6214888;23;19936;-75
2023/01/30 01:51:52;;;;;;;;;;;2.00;99.90;;;;;;6215388;23;19954;-75
2023/01/30 01:54:39;;;;;;;;;;;2.10;99.90;;;;;;6215874;23;19906;-77
2023/01/30 01:57:07;;;;;;;;;;;2.10;99.90;;;;;;6213848;23;19900;-77
2023/01/30 01:59:36;;;;;;;;;;;2.10;99.90;;;;;;6215833;23;20313;-74
2023/01/30 02:02:04;;;;;;;;;;;2.20;99.90;;;;;;6213635;23;19907;-77
2023/01/30 02:07:16;;;;;;;;;;;2.10;99.90;;;;;;6215716;23;20033;-77
2023/01/30 02:09:42;;;;;;;;;;;2.00;99.90;;;;;;6215216;23;19907;-77
2023/01/30 02:12:08;;;;;;;;;;;1.90;99.90;;;;;;6215403;23;19904;-77
2023/01/30 02:14:34;;;;;;;;;;;1.70;99.90;;;;;;6215611;23;19908;-75
2023/01/30 02:17:00;;;;;;;;;;;1.60;99.90;;;;;;6215141;23;20007;-75
2023/01/30 02:19:55;;;;;;;;;;;1.50;99.90;;;;;;6213641;23;19903;-75
2023/01/30 02:22:20;;;;;;;;;;;1.40;99.90;;;;;;6189080;23;19900;-78
2023/01/30 02:24:52;;;;;;;;;;;1.40;99.90;;;;;;6215343;23;19954;-77
2023/01/30 02:27:23;;;;;;;;;;;1.50;99.90;;;;;;6213870;23;20232;-78
2023/01/30 02:29:54;;;;;;;;;;;1.60;99.90;;;;;;6215228;23;19982;-75
2023/01/30 02:32:49;;;;;;;;;;;1.60;99.90;;;;;;6213510;23;20236;-78
2023/01/30 02:35:22;;;;;;;;;;;1.70;99.90;;;;;;6084539;23;19984;-78
2023/01/30 02:37:47;;;;;;;;;;;1.70;99.90;;;;;;6213788;23;19900;-78
2023/01/30 02:40:25;;;;;;;;;;;1.70;99.90;;;;;;6215367;23;20259;-77
2023/01/30 02:43:06;;;;;;;;;;;1.60;99.90;;;;;;6215336;23;19900;-77
2023/01/30 02:45:48;;;;;;;;;;;1.70;99.90;;;;;;6215158;23;19970;-75
2023/01/30 02:48:20;;;;;;;;;;;1.70;99.90;;;;;;6215091;23;19900;-77
2023/01/30 02:50:48;;;;;;;;;;;1.70;99.90;;;;;;6215243;23;19950;-77
2023/01/30 02:53:14;;;;;;;;;;;1.70;99.90;;;;;;6215121;23;19982;-75
2023/01/30 02:55:40;;;;;;;;;;;1.80;99.90;;;;;;6215284;23;20166;-75
2023/01/30 02:58:06;;;;;;;;;;;1.80;99.90;;;;;;6215203;23;19904;-75
2023/01/30 03:00:31;;;;;;;;;;;1.80;99.90;;;;;;6214926;23;20018;-75
2023/01/30 03:03:07;;;;;;;;;;;1.70;99.90;;;;;;6214905;23;19912;-75
2023/01/30 03:05:32;;;;;;;;;;;1.70;99.90;;;;;;6215191;23;19903;-78
2023/01/30 03:07:58;;;;;;;;;;;1.70;99.90;;;;;;6215011;23;19961;-75
2023/01/30 03:10:47;;;;;;;;;;;1.70;99.90;;;;;;6213370;23;19900;-75
2023/01/30 03:13:20;;;;;;;;;;;1.70;99.90;;;;;;6198846;23;20233;-78
2023/01/30 03:16:04;;;;;;;;;;;1.80;99.90;;;;;;6213236;23;19904;-77
2023/01/30 03:18:29;;;;;;;;;;;1.80;99.90;;;;;;6214886;23;19900;-77
2023/01/30 03:20:55;;;;;;;;;;;1.80;99.90;;;;;;6213127;23;19911;-77
2023/01/30 03:23:21;;;;;;;;;;;1.90;99.90;;;;;;6213417;23;19906;-77
2023/01/30 03:25:47;;;;;;;;;;;1.90;99.90;;;;;;6213389;23;19900;-77
2023/01/30 03:28:17;;;;;;;;;;;1.90;99.90;;;;;;6214968;23;19900;-77
2023/01/30 03:30:43;;;;;;;;;;;1.80;99.90;;;;;;6214415;23;20147;-77
2023/01/30 03:33:09;;;;;;;;;;;1.80;99.90;;;;;;6213164;23;19925;-74
2023/01/30 03:35:34;;;;;;;;;;;1.80;99.90;;;;;;6213245;23;19900;-77
2023/01/30 03:38:00;;;;;;;;;;;1.80;99.90;;;;;;6213244;23;19978;-77
2023/01/30 03:40:26;;;;;;;;;;;1.80;99.90;;;;;;6214821;23;19932;-77
2023/01/30 03:42:51;;;;;;;;;;;1.80;99.90;;;;;;6213017;23;19900;-78
2023/01/30 03:45:17;;;;;;;;;;;1.80;99.90;;;;;;6214653;23;19899;-77
2023/01/30 03:47:42;;;;;;;;;;;1.70;99.90;;;;;;6212990;23;19979;-77
2023/01/30 03:50:08;;;;;;;;;;;1.70;99.90;;;;;;6214733;23;19978;-77
2023/01/30 03:52:34;;;;;;;;;;;1.70;99.90;;;;;;6212695;23;19915;-77
2023/01/30 03:55:00;;;;;;;;;;;1.70;99.90;;;;;;6212951;23;20021;-77
2023/01/30 03:57:25;;;;;;;;;;;1.70;99.90;;;;;;6212623;23;19904;-77
2023/01/30 03:59:51;;;;;;;;;;;1.70;99.90;;;;;;6212902;23;19900;-77
2023/01/30 04:02:21;;;;;;;;;;;1.40;99.90;;;;;;6214034;23;19922;-77
2023/01/30 04:04:46;;;;;;;;;;;1.40;99.90;;;;;;6214575;23;20320;-77
2023/01/30 04:07:12;;;;;;;;;;;1.30;99.90;;;;;;6212953;23;19908;-77
2023/01/30 04:09:37;;;;;;;;;;;1.30;99.90;;;;;;6212908;23;19949;-77
2023/01/30 04:12:03;;;;;;;;;;;1.30;99.90;;;;;;6212760;23;19950;-77
2023/01/30 04:14:28;;;;;;;;;;;1.30;99.90;;;;;;6214265;23;19999;-77
2023/01/30 04:16:54;;;;;;;;;;;1.20;99.90;;;;;;6214349;23;19906;-78
2023/01/30 04:19:20;;;;;;;;;;;1.10;99.90;;;;;;6214461;23;19900;-77
2023/01/30 04:21:45;;;;;;;;;;;1.10;99.90;;;;;;6212705;23;19957;-77
2023/01/30 04:24:11;;;;;;;;;;;1.10;99.90;;;;;;6214475;23;19915;-77
2023/01/30 04:26:36;;;;;;;;;;;1.10;99.90;;;;;;6214205;23;20315;-77
2023/01/30 04:29:02;;;;;;;;;;;1.20;99.90;;;;;;6214205;23;20069;-78
2023/01/30 04:31:28;;;;;;;;;;;1.30;99.90;;;;;;6213953;23;19903;-78
2023/01/30 04:33:53;;;;;;;;;;;1.30;99.90;;;;;;6212531;23;19900;-77
2023/01/30 04:36:19;;;;;;;;;;;1.30;99.90;;;;;;6212802;23;19900;-78
2023/01/30 04:38:44;;;;;;;;;;;1.40;99.90;;;;;;6212704;23;20236;-78
2023/01/30 04:41:10;;;;;;;;;;;1.30;99.90;;;;;;6214015;23;19900;-78
2023/01/30 04:43:35;;;;;;;;;;;1.30;99.90;;;;;;6212725;23;19911;-78
2023/01/30 04:46:01;;;;;;;;;;;1.20;99.90;;;;;;6212609;23;19900;-77
2023/01/30 04:48:26;;;;;;;;;;;1.20;99.90;;;;;;6214244;23;19900;-77
2023/01/30 04:50:53;;;;;;;;;;;1.10;99.90;;;;;;6212415;23;19926;-78
2023/01/30 04:53:19;;;;;;;;;;;0.90;99.90;;;;;;6212708;23;19907;-77
2023/01/30 04:55:45;;;;;;;;;;;0.80;99.90;;;;;;6214417;23;20231;-77
2023/01/30 04:58:10;;;;;;;;;;;0.90;99.90;;;;;;6212733;23;19900;-77
2023/01/30 05:00:36;;;;;;;;;;;0.90;99.90;;;;;;6213835;23;20030;-77
2023/01/30 05:03:02;;;;;;;;;;;0.90;99.90;;;;;;6212486;23;20225;-78
2023/01/30 05:05:27;;;;;;;;;;;0.90;99.90;;;;;;6214191;23;20335;-78
2023/01/30 05:07:53;;;;;;;;;;;0.80;99.90;;;;;;6215151;23;19903;-78
2023/01/30 05:10:19;;;;;;;;;;;0.80;99.90;;;;;;6214613;23;19924;-78
2023/01/30 05:12:44;;;;;;;;;;;0.80;99.90;;;;;;6214410;23;19915;-77
2023/01/30 05:15:10;;;;;;;;;;;0.80;99.90;;;;;;6216097;23;20051;-77
2023/01/30 05:17:36;;;;;;;;;;;0.90;99.90;;;;;;6215897;23;19904;-78
2023/01/30 05:20:02;;;;;;;;;;;0.90;99.90;;;;;;6216237;23;19922;-77
2023/01/30 05:22:28;;;;;;;;;;;1.00;99.90;;;;;;6216134;23;20294;-77
2023/01/30 05:24:54;;;;;;;;;;;1.00;99.90;;;;;;6214485;23;19904;-78
2023/01/30 05:27:19;;;;;;;;;;;1.00;99.90;;;;;;6216075;23;19900;-78
2023/01/30 05:29:45;;;;;;;;;;;1.00;99.90;;;;;;6215912;23;19938;-78
2023/01/30 05:32:13;;;;;;;;;;;1.00;99.90;;;;;;6215662;23;19904;-78
2023/01/30 05:34:39;;;;;;;;;;;1.00;99.90;;;;;;6215906;23;19907;-78
2023/01/30 05:37:05;;;;;;;;;;;1.00;99.90;;;;;;6216088;23;19900;-78
2023/01/30 05:39:30;;;;;;;;;;;1.00;99.90;;;;;;6214501;23;19907;-78
2023/01/30 05:41:56;;;;;;;;;;;0.90;99.90;;;;;;6214249;23;20282;-78
2023/01/30 05:44:21;;;;;;;;;;;0.90;99.90;;;;;;6215779;23;19958;-78
2023/01/30 05:46:47;;;;;;;;;;;0.80;99.90;;;;;;6215780;23;19949;-79
2023/01/30 05:49:12;;;;;;;;;;;0.90;99.90;;;;;;6214056;23;19986;-78
2023/01/30 05:51:38;;;;;;;;;;;0.90;99.90;;;;;;6214181;23;19903;-78
2023/01/30 05:54:03;;;;;;;;;;;1.00;99.90;;;;;;6214181;23;20271;-76
2023/01/30 05:56:32;;;;;;;;;;;0.90;99.90;;;;;;6215783;23;19946;-78
2023/01/30 05:58:58;;;;;;;;;;;0.80;99.90;;;;;;6214016;23;19903;-76
2023/01/30 06:01:24;;;;;;;;;;;0.80;99.90;;;;;;6214000;23;19974;-78
2023/01/30 06:03:49;;;;;;;;;;;0.80;99.90;;;;;;6214146;23;20280;-78
2023/01/30 06:06:15;;;;;;;;;;;0.80;99.90;;;;;;6214063;23;19906;-78
2023/01/30 06:08:40;;;;;;;;;;;0.90;99.90;;;;;;6214100;23;19982;-78
2023/01/30 06:11:07;;;;;;;;;;;0.90;99.90;;;;;;6215427;23;20118;-78
2023/01/30 06:13:33;;;;;;;;;;;0.90;99.90;;;;;;6215718;23;19927;-78
2023/01/30 06:15:59;;;;;;;;;;;0.80;99.90;;;;;;6213850;23;19904;-78
2023/01/30 06:18:25;;;;;;;;;;;0.80;99.90;;;;;;6215458;23;19954;-79
2023/01/30 06:20:51;;;;;;;;;;;0.80;99.90;;;;;;6215153;23;20097;-78
2023/01/30 06:23:17;;;;;;;;;;;0.80;99.90;;;;;;6213869;23;19907;-78
2023/01/30 06:25:43;;;;;;;;;;;0.80;99.90;;;;;;6215612;23;19899;-78
2023/01/30 06:28:09;;;;;;;;;;;0.80;99.90;;;;;;6213948;23;19903;-78
2023/01/30 06:30:34;;;;;;;;;;;0.80;99.90;;;;;;6213708;23;19923;-78
2023/01/30 06:33:00;;;;;;;;;;;0.80;99.90;;;;;;6213655;23;19958;-79
2023/01/30 06:35:25;;;;;;;;;;;0.60;99.90;;;;;;6213877;23;19903;-79
2023/01/30 06:37:51;;;;;;;;;;;0.50;99.90;;;;;;6213264;23;20304;-78
2023/01/30 06:40:16;;;;;;;;;;;0.50;99.90;;;;;;6215396;23;19900;-79
2023/01/30 06:42:45;;;;;;;;;;;0.60;99.90;;;;;;6215339;23;19904;-78
2023/01/30 06:45:12;;;;;;;;;;;0.70;99.90;;;;;;6215384;23;19951;-79
2023/01/30 06:47:48;;;;;;;;;;;0.80;99.90;;;;;;6215297;23;20227;-79
2023/01/30 06:50:14;;;;;;;;;;;0.80;99.90;;;;;;6215200;23;20232;-78
2023/01/30 06:52:44;;;;;;;;;;;0.90;99.90;;;;;;6213681;23;19903;-79
2023/01/30 06:55:10;;;;;;;;;;;0.90;99.90;;;;;;6213843;23;19904;-79
2023/01/30 06:57:35;;;;;;;;;;;0.90;99.90;;;;;;6215448;23;20309;-79
2023/01/30 07:00:03;;;;;;;;;;;0.90;99.90;;;;;;6215173;23;19907;-79
2023/01/30 07:02:31;;;;;;;;;;;0.90;99.90;;;;;;6213319;23;19912;-79
2023/01/30 07:04:56;;;;;;;;;;;0.80;99.90;;;;;;6215388;23;19900;-79
2023/01/30 07:07:22;;;;;;;;;;;0.80;99.90;;;;;;6213675;23;20243;-77
2023/01/30 07:09:47;;;;;;;;;;;0.80;99.90;;;;;;6213522;23;19930;-79
2023/01/30 07:12:13;;;;;;;;;;;0.90;99.90;;;;;;6213287;23;19904;-79
2023/01/30 07:14:38;;;;;;;;;;;0.90;99.90;;;;;;6213538;23;19900;-76
2023/01/30 07:17:04;;;;;;;;;;;1.00;99.90;;;;;;6213352;23;19900;-79
2023/01/30 07:19:29;;;;;;;;;;;1.10;99.90;;;;;;6214968;23;20243;-79
2023/01/30 07:21:55;;;;;;;;;;;1.10;99.90;;;;;;6213360;23;19938;-79
2023/01/30 07:24:20;;;;;;;;;;;1.20;99.90;;;;;;6214802;23;19946;-79
2023/01/30 07:26:49;;;;;;;;;;;1.20;99.90;;;;;;6215061;23;19935;-79
2023/01/30 07:29:14;;;;;;;;;;;1.30;99.90;;;;;;6214915;23;19949;-79
2023/01/30 07:31:40;;;;;;;;;;;1.30;99.90;;;;;;6212282;23;20207;-79
2023/01/30 07:34:05;;;;;;;;;;;1.40;99.90;;;;;;6212554;23;19904;-76
2023/01/30 07:36:32;;;;;;;;;;;1.40;99.90;;;;;;6215011;23;19900;-77
2023/01/30 07:38:58;;;;;;;;;;;1.40;99.90;;;;;;6213931;23;20405;-78
2023/01/30 07:41:24;;;;;;;;;;;1.50;99.90;;;;;;6212556;23;20664;-78
2023/01/30 07:43:49;;;;;;;;;;;1.50;99.90;;;;;;6213242;23;19900;-78
2023/01/30 07:46:15;;;;;;;;;;;1.60;99.90;;;;;;6214556;23;19931;-78
2023/01/30 07:48:42;;;;;;;;;;;1.60;99.90;;;;;;6214632;23;19904;-78
2023/01/30 07:51:08;;;;;;;;;;;1.70;99.90;;;;;;6213697;23;20312;-78
2023/01/30 07:53:34;;;;;;;;;;;1.70;99.90;;;;;;6212568;23;19900;-78
2023/01/30 07:55:59;;;;;;;;;;;1.70;99.90;;;;;;6213066;23;19899;-78
2023/01/30 07:58:25;;;;;;;;;;;1.70;99.90;;;;;;6214879;23;20316;-78
2023/01/30 08:00:53;;;;;;;;;;;1.70;99.90;;;;;;6214017;23;20355;-78
2023/01/30 08:03:19;;;;;;;;;;;1.80;99.90;;;;;;6214427;23;20316;-78
2023/01/30 08:05:45;;;;;;;;;;;1.80;99.90;;;;;;6214452;23;19930;-78
2023/01/30 08:08:11;;;;;;;;;;;1.90;99.90;;;;;;6213066;23;19900;-78
2023/01/30 08:10:36;;;;;;;;;;;2.00;99.90;;;;;;6214224;23;19932;-77
2023/01/30 08:13:02;;;;;;;;;;;2.00;99.90;;;;;;6212581;23;20503;-78
2023/01/30 08:15:30;;;;;;;;;;;2.00;99.90;;;;;;6211664;23;19949;-77
2023/01/30 08:17:56;;;;;;;;;;;2.10;99.90;;;;;;6213780;23;20378;-78
2023/01/30 08:20:22;;;;;;;;;;;2.10;99.90;;;;;;6213580;23;19935;-77
2023/01/30 08:22:47;;;;;;;;;;;2.20;99.90;;;;;;6212490;23;19978;-77
2023/01/30 08:25:13;;;;;;;;;;;2.20;99.90;;;;;;6213835;23;19958;-77
2023/01/30 08:27:38;;;;;;;;;;;2.20;99.90;;;;;;6212542;23;19907;-77
2023/01/30 08:30:04;;;;;;;;;;;2.20;99.90;;;;;;6214362;23;20323;-78
2023/01/30 08:32:30;;;;;;;;;;;2.20;99.90;;;;;;6212274;23;19903;-78
2023/01/30 08:34:55;;;;;;;;;;;2.20;99.90;;;;;;6214345;23;19904;-77
2023/01/30 08:37:21;;;;;;;;;;;2.20;99.90;;;;;;6214315;23;19904;-78
2023/01/30 08:39:46;;;;;;;;;;;2.20;99.90;;;;;;6214377;23;19946;-77
2023/01/30 08:42:12;;;;;;;;;;;2.30;99.90;;;;;;6212321;23;19904;-78
2023/01/30 08:44:37;;;;;;;;;;;2.30;99.90;;;;;;6212508;23;19907;-78
2023/01/30 08:47:03;;;;;;;;;;;2.30;99.90;;;;;;6212540;23;19942;-77
2023/01/30 08:49:28;;;;;;;;;;;2.40;99.90;;;;;;6214214;23;19900;-78
2023/01/30 08:51:54;;;;;;;;;;;2.30;99.90;;;;;;6212495;23;19907;-77
2023/01/30 08:54:19;;;;;;;;;;;2.40;99.90;;;;;;6214360;23;19900;-77
2023/01/30 08:56:45;;;;;;;;;;;2.40;99.90;;;;;;6214037;23;19900;-77
2023/01/30 08:59:11;;;;;;;;;;;2.50;99.90;;;;;;6214390;23;19967;-77
2023/01/30 09:01:37;;;;;;;;;;;2.60;99.90;;;;;;6213454;23;19904;-77
2023/01/30 09:04:02;;;;;;;;;;;2.60;99.90;;;;;;6212665;23;19908;-77
2023/01/30 09:06:28;;;;;;;;;;;2.60;99.90;;;;;;6212660;23;19903;-77
2023/01/30 09:08:53;;;;;;;;;;;2.70;99.90;;;;;;6214065;23;20123;-77
2023/01/30 09:11:19;;;;;;;;;;;2.80;99.90;;;;;;6214032;23;19904;-77
2023/01/30 09:13:44;;;;;;;;;;;2.80;99.90;;;;;;6212548;23;19900;-77
2023/01/30 09:16:10;;;;;;;;;;;2.90;99.90;;;;;;6212434;23;19904;-77
2023/01/30 09:18:40;;;;;;;;;;;3.00;99.90;;;;;;6214063;23;19911;-77
2023/01/30 09:21:06;;;;;;;;;;;3.00;99.90;;;;;;6212613;23;19904;-77
2023/01/30 09:23:32;;;;;;;;;;;3.00;99.90;;;;;;6214058;23;19906;-77
2023/01/30 09:25:59;;;;;;;;;;;3.10;99.90;;;;;;6212571;23;19931;-77
2023/01/30 09:28:24;;;;;;;;;;;3.20;99.90;;;;;;6214171;23;19900;-77
2023/01/30 09:30:50;;;;;;;;;;;3.20;99.90;;;;;;6212432;23;19906;-77
2023/01/30 09:33:19;;;;;;;;;;;3.30;99.90;;;;;;6213655;23;19907;-77
2023/01/30 09:35:48;;;;;;;;;;;3.30;99.90;;;;;;6212563;23;19903;-77
2023/01/30 09:38:13;;;;;;;;;;;3.40;99.90;;;;;;6213998;23;19975;-77
2023/01/30 09:40:46;;;;;;;;;;;3.50;99.90;;;;;;6214135;23;20382;-77
2023/01/30 09:43:16;;;;;;;;;;;3.60;99.90;;;;;;6212485;23;19978;-77
2023/01/30 09:45:52;;;;;;;;;;;3.70;99.90;;;;;;6212277;23;20331;-76
2023/01/30 09:48:28;;;;;;;;;;;3.70;99.90;;;;;;6213695;23;19907;-76
2023/01/30 09:50:57;;;;;;;;;;;3.70;99.90;;;;;;6214101;23;19946;-76
2023/01/30 09:53:37;;;;;;;;;;;3.70;99.90;;;;;;6213954;23;19908;-76
2023/01/30 09:56:03;;;;;;;;;;;3.80;99.90;;;;;;6215642;23;19900;-76
2023/01/30 09:58:37;;;;;;;;;;;3.90;99.90;;;;;;6215647;23;19900;-76
2023/01/30 10:01:06;;;;;;;;;;;3.90;99.90;;;;;;6215495;23;19931;-76
2023/01/30 10:03:38;;;;;;;;;;;3.90;99.90;;;;;;6213921;23;19919;-76
2023/01/30 10:06:05;;;;;;;;;;;3.90;99.90;;;;;;6215609;23;20328;-76
2023/01/30 10:08:49;;;;;;;;;;;4.00;99.90;;;;;;6215796;23;20334;-76
2023/01/30 10:11:14;;;;;;;;;;;3.90;99.90;;;;;;6215308;23;19910;-76
2023/01/30 10:13:43;;;;;;;;;;;3.90;99.90;;;;;;6215692;23;19900;-76
2023/01/30 10:16:27;;;;;;;;;;;3.90;99.90;;;;;;6213766;23;19900;-77
2023/01/30 10:18:59;;;;;;;;;;;3.80;99.90;;;;;;6213852;23;20319;-76
2023/01/30 10:21:36;;;;;;;;;;;3.80;99.90;;;;;;6215392;23;19900;-76
2023/01/30 10:24:22;;;;;;;;;;;3.80;99.90;;;;;;6215610;23;19907;-76
2023/01/30 10:26:47;;;;;;;;;;;3.80;99.90;;;;;;6215563;23;20312;-76
2023/01/30 10:29:23;;;;;;;;;;;3.80;99.90;;;;;;6213745;23;19930;-76
2023/01/30 10:31:50;;;;;;;;;;;3.80;99.90;;;;;;6214814;23;19904;-75
2023/01/30 10:34:24;;;;;;;;;;;3.90;99.90;;;;;;6215536;23;20276;-75
2023/01/30 10:36:52;;;;;;;;;;;3.90;99.90;;;;;;6213941;23;19900;-76
2023/01/30 10:39:33;;;;;;;;;;;4.00;99.90;;;;;;6213641;23;20002;-76
2023/01/30 10:42:12;;;;;;;;;;;4.00;99.90;;;;;;6213483;23;19900;-76
2023/01/30 10:44:39;;;;;;;;;;;4.00;99.90;;;;;;6215400;23;20282;-76
2023/01/30 10:47:21;;;;;;;;;;;4.10;99.90;;;;;;6215143;23;20320;-75
2023/01/30 10:49:54;;;;;;;;;;;4.20;99.90;;;;;;6215329;23;19903;-76
2023/01/30 10:52:26;;;;;;;;;;;4.20;99.90;;;;;;6213455;23;19903;-75
2023/01/30 10:54:52;;;;;;;;;;;4.30;99.90;;;;;;6215274;23;19906;-75
2023/01/30 10:57:40;;;;;;;;;;;4.30;99.90;;;;;;6213552;23;19979;-75
2023/01/30 11:00:32;;;;;;;;;;;4.40;99.90;;;;;;6199084;23;19995;-76
2023/01/30 11:03:07;;;;;;;;;;;4.50;99.90;;;;;;6156483;23;19912;-75
2023/01/30 11:05:48;;;;;;;;;;;4.60;99.90;;;;;;6213333;23;19907;-75
2023/01/30 11:08:20;;;;;;;;;;;4.70;99.90;;;;;;6215210;23;19896;-77
2023/01/30 11:10:45;;;;;;;;;;;4.80;99.90;;;;;;6213230;23;19900;-75
2023/01/30 11:13:16;;;;;;;;;;;4.90;99.90;;;;;;6214963;23;20339;-76
2023/01/30 11:15:44;;;;;;;;;;;5.00;99.90;;;;;;6213537;23;19991;-75
2023/01/30 11:18:10;;;;;;;;;;;5.10;99.90;;;;;;6214834;23;19954;-75
2023/01/30 11:20:40;;;;;;;;;;;5.20;99.90;;;;;;6214978;23;20316;-75
2023/01/30 11:23:08;;;;;;;;;;;5.30;99.90;;;;;;6213397;23;19908;-76
2023/01/30 11:25:50;;;;;;;;;;;5.40;99.90;;;;;;6213515;23;20227;-75
2023/01/30 11:28:18;;;;;;;;;;;5.40;99.90;;;;;;6213237;23;20228;-75
2023/01/30 11:30:49;;;;;;;;;;;5.50;99.90;;;;;;6213313;23;19900;-75
2023/01/30 11:33:16;;;;;;;;;;;5.60;99.90;;;;;;6212887;23;19986;-75
2023/01/30 11:35:52;;;;;;;;;;;5.70;99.90;;;;;;6214775;23;19900;-75
2023/01/30 11:38:22;;;;;;;;;;;5.90;99.90;;;;;;6214620;23;20335;-75
2023/01/30 11:40:48;;;;;;;;;;;6.00;99.90;;;;;;6214757;23;19900;-75
2023/01/30 11:43:14;;;;;;;;;;;6.10;99.90;;;;;;6214598;23;19907;-75
2023/01/30 11:45:41;;;;;;;;;;;6.10;99.90;;;;;;6214829;23;19900;-75
2023/01/30 11:48:13;;;;;;;;;;;6.20;99.90;;;;;;6214347;23;19899;-75
2023/01/30 11:50:40;;;;;;;;;;;6.30;99.90;;;;;;6214479;23;19945;-76
2023/01/30 11:53:13;;;;;;;;;;;6.40;99.90;;;;;;6214535;23;20232;-75
2023/01/30 11:55:39;;;;;;;;;;;6.50;99.90;;;;;;6214455;23;20312;-75
2023/01/30 11:58:07;;;;;;;;;;;6.60;99.90;;;;;;6214770;23;19931;-75
2023/01/30 12:00:38;;;;;;;;;;;6.70;99.90;;;;;;6213012;23;20137;-75
2023/01/30 12:03:05;;;;;;;;;;;6.80;99.90;;;;;;6214209;23;19915;-75
2023/01/30 12:05:33;;;;;;;;;;;6.90;99.90;;;;;;6214524;23;19900;-75
2023/01/30 12:08:18;;;;;;;;;;;7.00;99.90;;;;;;6212761;23;19911;-75
2023/01/30 12:10:44;;;;;;;;;;;7.00;99.90;;;;;;6212933;23;19907;-75
2023/01/30 12:13:17;;;;;;;;;;;7.00;99.90;;;;;;6212905;23;19904;-75
2023/01/30 12:15:44;;;;;;;;;;;7.10;99.90;;;;;;6214394;23;19900;-75
2023/01/30 12:18:09;;;;;;;;;;;7.20;99.90;;;;;;6214184;23;19931;-75
2023/01/30 12:20:54;;;;;;;;;;;7.20;99.90;;;;;;6214306;23;19954;-76
2023/01/30 12:23:28;;;;;;;;;;;7.20;99.90;;;;;;6214392;23;19900;-75
2023/01/30 12:25:56;;;;;;;;;;;7.20;99.90;;;;;;6212942;23;20224;-75
2023/01/30 12:29:00;;;;;;;;;;;7.30;99.90;;;;;;6212658;23;19904;-75
2023/01/30 12:31:29;;;;;;;;;;;7.30;99.90;;;;;;6092588;23;19905;-74
2023/01/30 12:33:55;;;;;;;;;;;7.30;99.90;;;;;;6093124;23;19937;-75
2023/01/30 12:36:27;;;;;;;;;;;7.30;99.90;;;;;;6152028;23;20374;-75
2023/01/30 12:39:11;;;;;;;;;;;7.30;99.90;;;;;;6212519;23;19950;-78
2023/01/30 12:41:45;;;;;;;;;;;7.30;99.90;;;;;;6214287;23;19907;-78
2023/01/30 12:44:29;;;;;;;;;;;7.30;99.90;;;;;;6214352;23;19900;-75
2023/01/30 12:47:01;;;;;;;;;;;7.40;99.90;;;;;;6212509;23;19942;-77
2023/01/30 12:49:44;;;;;;;;;;;7.40;99.90;;;;;;6212520;23;19953;-77
2023/01/30 12:52:29;;;;;;;;;;;7.30;99.90;;;;;;6214118;23;19908;-77
2023/01/30 12:54:57;;;;;;;;;;;7.40;99.90;;;;;;6214352;23;19904;-77
2023/01/30 12:57:41;;;;;;;;;;;7.40;99.90;;;;;;6214233;23;19907;-77
2023/01/30 13:00:25;;;;;;;;;;;7.40;99.90;;;;;;6212557;23;19900;-77
2023/01/30 13:02:59;;;;;;;;;;;7.40;99.90;;;;;;6213762;23;19998;-77
2023/01/30 13:05:32;;;;;;;;;;;7.40;99.90;;;;;;6212567;23;19906;-77
2023/01/30 13:08:17;;;;;;;;;;;7.30;99.90;;;;;;6212414;23;20209;-77
2023/01/30 13:10:46;;;;;;;;;;;7.30;99.90;;;;;;6212526;23;20342;-77
2023/01/30 13:13:24;;;;;;;;;;;7.30;99.90;;;;;;6213990;23;19927;-77
2023/01/30 13:15:56;;;;;;;;;;;7.20;99.90;;;;;;6214266;23;19991;-76
2023/01/30 13:18:30;;;;;;;;;;;7.20;99.90;;;;;;6213767;23;19899;-74
2023/01/30 13:21:14;;;;;;;;;;;7.20;99.90;;;;;;6213975;23;19926;-77
2023/01/30 13:23:40;;;;;;;;;;;7.30;99.90;;;;;;6212537;23;19907;-77
2023/01/30 13:26:15;;;;;;;;;;;7.30;99.90;;;;;;6212407;23;19903;-77
2023/01/30 13:28:58;;;;;;;;;;;7.30;99.90;;;;;;6213109;23;20312;-77
2023/01/30 13:31:28;;;;;;;;;;;7.30;99.90;;;;;;6214236;23;19958;-77
2023/01/30 13:34:04;;;;;;;;;;;7.40;99.90;;;;;;6214575;23;19953;-77
2023/01/30 13:36:41;;;;;;;;;;;7.40;99.90;;;;;;6216177;23;20338;-76
2023/01/30 13:39:30;;;;;;;;;;;7.30;99.90;;;;;;6216005;23;19907;-77
2023/01/30 13:41:56;;;;;;;;;;;7.30;99.90;;;;;;6159777;23;20330;-77
2023/01/30 13:44:25;;;;;;;;;;;7.30;99.90;;;;;;6215928;23;19904;-77
2023/01/30 13:46:51;;;;;;;;;;;7.30;99.90;;;;;;6215775;23;19906;-77
2023/01/30 13:49:22;;;;;;;;;;;7.30;99.90;;;;;;6215771;23;19904;-77
2023/01/30 13:51:55;;;;;;;;;;;7.30;99.90;;;;;;6213938;23;19907;-77
2023/01/30 13:54:20;;;;;;;;;;;7.20;99.90;;;;;;6215850;23;19900;-77
2023/01/30 13:56:46;;;;;;;;;;;7.30;99.90;;;;;;6214367;23;19904;-77
2023/01/30 13:59:19;;;;;;;;;;;7.30;99.90;;;;;;6214239;23;20353;-77
2023/01/30 14:02:05;;;;;;;;;;;7.50;99.90;;;;;;6215438;23;19900;-77
2023/01/30 14:04:38;;;;;;;;;;;7.50;99.90;;;;;;6214115;23;19929;-77
2023/01/30 14:07:15;;;;;;;;;;;7.40;99.90;;;;;;6214064;23;19911;-77
2023/01/30 14:09:42;;;;;;;;;;;7.40;99.90;;;;;;6215666;23;19899;-77
2023/01/30 14:12:16;;;;;;;;;;;7.50;99.90;;;;;;6213865;23;19910;-77
2023/01/30 14:14:43;;;;;;;;;;;7.40;99.90;;;;;;6215568;23;19907;-77
2023/01/30 14:17:10;;;;;;;;;;;7.50;99.90;;;;;;6213624;23;20220;-77
2023/01/30 14:19:43;;;;;;;;;;;7.50;99.90;;;;;;6214064;23;19949;-76
2023/01/30 14:22:17;;;;;;;;;;;7.50;99.90;;;;;;6215707;23;19907;-77
2023/01/30 14:24:42;;;;;;;;;;;7.60;99.90;;;;;;6213992;23;19923;-77
2023/01/30 14:27:22;;;;;;;;;;;7.60;99.90;;;;;;6213600;23;20304;-77
2023/01/30 14:29:48;;;;;;;;;;;7.60;99.90;;;;;;6213739;23;19899;-77
2023/01/30 14:32:14;;;;;;;;;;;7.60;99.90;;;;;;6213558;23;19908;-77
2023/01/30 14:34:41;;;;;;;;;;;7.60;99.90;;;;;;6215575;23;19899;-77
2023/01/30 14:37:25;;;;;;;;;;;7.60;99.90;;;;;;6215404;23;19904;-76
2023/01/30 14:39:52;;;;;;;;;;;7.60;99.90;;;;;;6214955;23;19910;-77
2023/01/30 14:42:23;;;;;;;;;;;7.60;99.90;;;;;;6215334;23;19906;-77
2023/01/30 14:45:00;;;;;;;;;;;7.50;99.90;;;;;;6215405;23;20304;-77
2023/01/30 14:47:27;;;;;;;;;;;7.60;99.90;;;;;;6215123;23;19991;-77
2023/01/30 14:49:53;;;;;;;;;;;7.50;99.90;;;;;;6215336;23;19900;-77